createdAt,value
2023-03-26T00:02:23.607Z,99343.30
2023-03-26T00:04:54.448Z,99345.21
2023-03-26T00:07:25.118Z,99347.66
2023-03-26T00:09:56.103Z,99347.35
2023-03-26T00:12:27.092Z,99346.44
2023-03-26T00:14:56.131Z,99344.21
2023-03-26T00:17:27.114Z,99348.52
2023-03-26T00:19:58.061Z,99349.21
2023-03-26T00:22:29.126Z,99341.13
2023-03-26T00:24:58.195Z,99339.98
2023-03-26T00:27:28.850Z,99341.78
2023-03-26T00:29:59.544Z,99343.73
2023-03-26T00:32:30.846Z,99341.84
2023-03-26T00:35:01.587Z,99341.70
2023-03-26T00:37:33.010Z,99343.04
2023-03-26T00:40:11.389Z,99337.67
2023-03-26T00:42:42.063Z,99334.10
2023-03-26T00:45:13.174Z,99333.58
2023-03-26T00:47:42.362Z,99329.81
2023-03-26T00:50:13.101Z,99331.11
2023-03-26T00:52:44.208Z,99335.54
2023-03-26T00:55:13.340Z,99330.64
2023-03-26T00:57:44.000Z,99330.52
2023-03-26T01:00:18.947Z,99331.29
2023-03-26T01:02:49.697Z,99330.89
2023-03-26T01:05:50.379Z,99327.13
2023-03-26T01:08:30.237Z,99329.94
2023-03-26T01:11:04.678Z,99331.27
2023-03-26T01:13:39.820Z,99334.75
2023-03-26T01:16:21.160Z,99332.23
2023-03-26T01:18:52.087Z,99330.94
2023-03-26T01:21:27.045Z,99330.45
2023-03-26T01:24:02.978Z,99331.63
2023-03-26T01:27:14.478Z,99333.48
2023-03-26T01:29:50.447Z,99331.23
2023-03-26T01:32:30.067Z,99325.92
2023-03-26T01:35:15.874Z,99323.55
2023-03-26T01:37:58.894Z,99325.33
2023-03-26T01:40:35.948Z,99321.27
2023-03-26T01:43:12.863Z,99327.01
2023-03-26T01:45:47.729Z,99332.45
2023-03-26T01:48:18.873Z,99327.23
2023-03-26T01:50:49.662Z,99327.96
2023-03-26T01:53:20.413Z,99327.83
2023-03-26T01:55:58.733Z,99323.52
2023-03-26T01:58:36.718Z,99322.08
2023-03-26T02:01:20.538Z,99326.17
2023-03-26T02:03:58.440Z,99322.75
2023-03-26T02:06:36.786Z,99321.86
2023-03-26T02:09:11.486Z,99320.75
2023-03-26T02:11:43.608Z,99319.59
2023-03-26T02:14:15.328Z,99323.05
2023-03-26T02:16:46.261Z,99318.42
2023-03-26T02:19:15.647Z,99318.10
2023-03-26T02:21:46.638Z,99318.71
2023-03-26T02:24:17.818Z,99315.12
2023-03-26T02:26:48.534Z,99319.21
2023-03-26T02:29:19.335Z,99316.13
2023-03-26T02:31:50.722Z,99316.85
2023-03-26T02:34:21.370Z,99316.59
2023-03-26T02:36:52.109Z,99312.84
2023-03-26T02:39:22.788Z,99319.88
2023-03-26T02:41:53.530Z,99322.02
2023-03-26T02:44:24.134Z,99321.26
2023-03-26T02:46:54.839Z,99317.52
2023-03-26T02:49:26.002Z,99318.98
2023-03-26T02:51:57.178Z,99317.92
2023-03-26T02:54:27.844Z,99316.73
2023-03-26T02:56:58.533Z,99315.91
2023-03-26T02:59:29.236Z,99314.04
2023-03-26T03:01:59.979Z,99310.41
2023-03-26T03:04:30.656Z,99307.84
2023-03-26T03:07:01.382Z,99306.45
2023-03-26T03:09:32.088Z,99311.11
2023-03-26T03:12:03.319Z,99317.02
2023-03-26T03:14:33.968Z,99318.27
2023-03-26T03:17:05.033Z,99322.90
2023-03-26T03:19:34.102Z,99322.55
2023-03-26T03:22:04.749Z,99319.92
2023-03-26T03:24:35.391Z,99319.09
2023-03-26T03:27:06.264Z,99317.77
2023-03-26T03:29:36.915Z,99315.41
2023-03-26T03:32:07.679Z,99319.33
2023-03-26T03:34:38.357Z,99323.52
2023-03-26T03:37:08.983Z,99324.46
2023-03-26T03:39:39.631Z,99319.87
2023-03-26T03:42:10.264Z,99325.79
2023-03-26T03:44:40.937Z,99326.02
2023-03-26T03:47:11.713Z,99327.59
2023-03-26T03:49:42.427Z,99325.22
2023-03-26T03:52:13.048Z,99324.67
2023-03-26T03:54:43.737Z,99329.98
2023-03-26T03:57:14.666Z,99331.51
2023-03-26T03:59:47.485Z,99331.96
2023-03-26T04:02:18.962Z,99333.80
2023-03-26T04:04:49.607Z,99335.33
2023-03-26T04:07:20.564Z,99334.04
2023-03-26T04:09:49.685Z,99334.98
2023-03-26T04:12:20.429Z,99333.63
2023-03-26T04:14:51.043Z,99333.54
2023-03-26T04:17:21.713Z,99338.79
2023-03-26T04:19:52.683Z,99337.55
2023-03-26T04:22:23.570Z,99339.15
2023-03-26T04:24:54.360Z,99347.14
2023-03-26T04:27:29.764Z,99345.23
2023-03-26T04:30:03.713Z,99339.70
2023-03-26T04:32:34.972Z,99341.27
2023-03-26T04:35:11.425Z,99345.61
2023-03-26T04:37:43.966Z,99346.65
2023-03-26T04:40:18.933Z,99347.89
2023-03-26T04:42:49.707Z,99345.63
2023-03-26T04:45:20.751Z,99351.32
2023-03-26T04:47:54.460Z,99350.80
2023-03-26T04:50:32.914Z,99349.44
2023-03-26T04:53:03.532Z,99353.23
2023-03-26T04:55:39.824Z,99352.39
2023-03-26T04:58:10.705Z,99353.73
2023-03-26T05:00:40.430Z,99355.07
2023-03-26T05:03:12.459Z,99354.96
2023-03-26T05:05:44.608Z,99359.67
2023-03-26T05:08:15.338Z,99363.09
2023-03-26T05:10:46.168Z,99365.06
2023-03-26T05:13:16.809Z,99364.92
2023-03-26T05:15:47.495Z,99364.55
2023-03-26T05:18:18.097Z,99368.61
2023-03-26T05:20:48.769Z,99369.85
2023-03-26T05:23:19.393Z,99374.06
2023-03-26T05:25:50.165Z,99379.15
2023-03-26T05:28:21.128Z,99381.69
2023-03-26T05:30:52.583Z,99377.73
2023-03-26T05:33:24.672Z,99377.67
2023-03-26T05:36:03.487Z,99379.63
2023-03-26T05:38:34.503Z,99378.27
2023-03-26T05:41:08.059Z,99385.30
2023-03-26T05:43:38.721Z,99383.31
2023-03-26T05:46:09.789Z,99384.27
2023-03-26T05:48:39.169Z,99381.00
2023-03-26T05:51:10.099Z,99384.31
2023-03-26T05:53:40.749Z,99384.26
2023-03-26T05:56:13.297Z,99384.25
2023-03-26T05:58:43.968Z,99381.05
2023-03-26T06:01:21.786Z,99382.41
2023-03-26T06:03:52.625Z,99383.34
2023-03-26T06:06:23.399Z,99385.02
2023-03-26T06:09:01.535Z,99386.38
2023-03-26T06:11:33.498Z,99390.15
2023-03-26T06:14:04.189Z,99387.35
2023-03-26T06:16:34.963Z,99387.09
2023-03-26T06:19:05.689Z,99390.64
2023-03-26T06:21:36.449Z,99391.39
2023-03-26T06:24:09.332Z,99391.59
2023-03-26T06:26:40.019Z,99395.11
2023-03-26T06:29:10.767Z,99396.86
2023-03-26T06:31:41.886Z,99400.02
2023-03-26T06:34:10.935Z,99393.60
2023-03-26T06:36:41.658Z,99396.10
2023-03-26T06:39:12.349Z,99401.37
2023-03-26T06:41:43.016Z,99397.88
2023-03-26T06:44:13.879Z,99403.08
2023-03-26T06:46:44.768Z,99407.15
2023-03-26T06:49:15.508Z,99407.17
2023-03-26T06:51:46.203Z,99410.66
2023-03-26T06:54:16.934Z,99413.71
2023-03-26T06:56:47.686Z,99415.39
2023-03-26T06:59:18.585Z,99417.35
2023-03-26T07:02:09.306Z,99415.38
2023-03-26T07:04:40.403Z,99416.80
2023-03-26T07:07:11.155Z,99416.36
2023-03-26T07:09:41.992Z,99420.38
2023-03-26T07:12:12.625Z,99416.53
2023-03-26T07:14:43.631Z,99414.57
2023-03-26T07:17:12.751Z,99415.63
2023-03-26T07:23:34.829Z,99417.42
2023-03-26T07:26:22.436Z,99422.41
2023-03-26T07:29:04.498Z,99426.13
2023-03-26T07:31:47.812Z,99432.09
2023-03-26T07:34:34.272Z,99434.13
2023-03-26T07:37:11.088Z,99439.05
2023-03-26T07:39:57.076Z,99438.46
2023-03-26T07:42:40.102Z,99437.59
2023-03-26T07:45:22.309Z,99440.66
2023-03-26T07:47:57.069Z,99436.59
2023-03-26T07:50:31.352Z,99435.77
2023-03-26T07:53:02.890Z,99432.47
2023-03-26T07:55:36.131Z,99427.88
2023-03-26T07:58:21.187Z,99432.58
2023-03-26T08:00:56.985Z,99434.48
2023-03-26T08:03:41.024Z,99433.66
2023-03-26T08:06:22.165Z,99435.27
2023-03-26T08:09:00.102Z,99433.36
2023-03-26T08:11:40.841Z,99432.98
2023-03-26T08:14:24.829Z,99432.31
2023-03-26T08:17:05.398Z,99429.27
2023-03-26T08:19:48.382Z,99427.05
2023-03-26T08:22:23.354Z,99425.63
2023-03-26T08:25:04.219Z,99428.05
2023-03-26T08:27:39.454Z,99428.86
2023-03-26T08:30:18.935Z,99422.91
2023-03-26T08:32:54.473Z,99423.09
2023-03-26T08:35:26.573Z,99423.59
2023-03-26T08:37:57.489Z,99420.94
2023-03-26T08:40:51.405Z,99420.85
2023-03-26T08:43:41.310Z,99414.85
2023-03-26T08:46:34.861Z,99415.33
2023-03-26T08:49:31.156Z,99412.52
2023-03-26T08:52:34.841Z,99407.86
2023-03-26T08:55:33.627Z,99409.73
2023-03-26T08:58:35.719Z,99407.91
2023-03-26T09:01:56.500Z,99405.10
2023-03-26T09:04:58.929Z,99407.36
2023-03-26T09:07:52.077Z,99405.91
2023-03-26T09:10:51.059Z,99409.39
2023-03-26T09:13:53.302Z,99413.64
2023-03-26T09:16:39.373Z,99417.29
2023-03-26T09:19:40.209Z,99424.02
2023-03-26T09:22:43.322Z,99423.62
2023-03-26T09:25:38.668Z,99421.80
2023-03-26T09:28:34.478Z,99417.53
2023-03-26T09:31:45.179Z,99416.56
2023-03-26T09:34:30.500Z,99413.13
2023-03-26T09:37:18.209Z,99411.39
2023-03-26T09:40:04.255Z,99416.88
2023-03-26T09:43:00.326Z,99416.18
2023-03-26T09:45:50.073Z,99414.05
2023-03-26T09:49:13.960Z,99413.79
2023-03-26T09:51:56.323Z,99418.87
2023-03-26T09:54:51.096Z,99421.59
2023-03-26T09:57:35.390Z,99420.52
2023-03-26T10:00:31.278Z,99417.23
2023-03-26T10:03:18.776Z,99416.73
2023-03-26T10:05:58.894Z,99418.05
2023-03-26T10:08:55.791Z,99418.46
2023-03-26T10:11:39.301Z,99416.19
2023-03-26T10:14:19.704Z,99411.71
2023-03-26T10:17:06.728Z,99405.08
2023-03-26T10:20:00.257Z,99402.99
2023-03-26T10:22:46.676Z,99394.98
2023-03-26T10:25:29.243Z,99389.98
2023-03-26T10:28:09.831Z,99395.52
2023-03-26T10:31:05.574Z,99388.10
2023-03-26T10:33:50.185Z,99388.67
2023-03-26T10:36:30.905Z,99392.98
2023-03-26T10:39:36.942Z,99396.95
2023-03-26T10:42:23.410Z,99396.86
2023-03-26T10:45:14.456Z,99398.11
2023-03-26T10:48:00.121Z,99401.19
2023-03-26T10:50:44.045Z,99410.58
2023-03-26T10:53:27.356Z,99412.14
2023-03-26T10:56:19.784Z,99425.42
2023-03-26T11:02:30.066Z,99429.86
2023-03-26T11:05:26.186Z,99429.39
2023-03-26T11:08:02.053Z,99433.15
2023-03-26T11:10:45.126Z,99440.04
2023-03-26T11:13:31.836Z,99441.33
2023-03-26T11:16:09.569Z,99443.95
2023-03-26T11:18:48.863Z,99434.93
2023-03-26T11:21:24.779Z,99437.83
2023-03-26T11:24:11.394Z,99431.18
2023-03-26T11:26:51.775Z,99429.84
2023-03-26T11:29:43.401Z,99432.11
2023-03-26T11:32:17.502Z,99427.30
2023-03-26T11:34:56.913Z,99427.53
2023-03-26T11:37:31.967Z,99429.90
2023-03-26T11:40:19.515Z,99433.27
2023-03-26T11:42:53.104Z,99425.90
2023-03-26T11:45:26.592Z,99427.48
2023-03-26T11:48:03.832Z,99422.41
2023-03-26T11:51:04.809Z,99415.44
2023-03-26T11:53:35.747Z,99410.75
2023-03-26T11:56:13.826Z,99403.77
2023-03-26T11:59:08.607Z,99402.95
2023-03-26T12:01:50.807Z,99393.39
2023-03-26T12:04:30.001Z,99388.83
2023-03-26T12:07:17.210Z,99385.05
2023-03-26T12:09:53.545Z,99379.41
2023-03-26T12:12:27.169Z,99377.17
2023-03-26T12:14:58.387Z,99374.23
2023-03-26T12:17:32.167Z,99371.59
2023-03-26T12:21:15.827Z,99369.07
2023-03-26T12:23:45.278Z,99368.39
2023-03-26T12:26:52.977Z,99372.77
2023-03-26T12:31:45.280Z,99369.08
2023-03-26T12:34:20.904Z,99370.64
2023-03-26T12:36:54.816Z,99368.50
2023-03-26T12:40:10.039Z,99374.70
2023-03-26T12:44:51.502Z,99380.63
2023-03-26T12:45:28.011Z,99379.05
2023-03-26T12:48:03.925Z,99382.32
2023-03-26T12:50:53.096Z,99375.35
2023-03-26T12:53:48.342Z,99377.05
2023-03-26T12:56:26.728Z,99378.42
2023-03-26T12:59:12.344Z,99377.03
2023-03-26T13:02:01.380Z,99375.52
2023-03-26T13:05:02.220Z,99374.17
2023-03-26T13:07:51.505Z,99367.66
2023-03-26T13:18:40.177Z,99371.02
2023-03-26T13:23:54.801Z,99360.31
2023-03-26T13:24:02.707Z,99370.58
2023-03-26T13:26:39.010Z,99357.51
2023-03-26T13:29:19.980Z,99357.86
2023-03-26T13:31:54.749Z,99357.81
2023-03-26T13:34:34.314Z,99353.88
2023-03-26T13:37:14.468Z,99354.94
2023-03-26T13:39:55.286Z,99359.99
2023-03-26T13:42:39.822Z,99351.74
2023-03-26T13:45:24.725Z,99357.22
2023-03-26T13:48:21.819Z,99359.14
2023-03-26T13:51:01.867Z,99363.69
2023-03-26T13:53:40.640Z,99363.36
2023-03-26T13:56:35.991Z,99360.65
2023-03-26T13:59:35.576Z,99365.81
2023-03-26T14:02:11.674Z,99363.52
2023-03-26T14:04:45.675Z,99364.63
2023-03-26T14:07:18.740Z,99366.77
2023-03-26T14:09:54.588Z,99367.56
2023-03-26T14:12:33.929Z,99371.39
2023-03-26T14:15:11.132Z,99366.66
2023-03-26T14:17:48.648Z,99365.63
2023-03-26T14:20:59.260Z,99367.46
2023-03-26T14:23:58.607Z,99369.81
2023-03-26T14:26:40.989Z,99373.21
2023-03-26T14:29:56.599Z,99367.06
2023-03-26T14:32:37.735Z,99367.67
2023-03-26T14:35:36.777Z,99371.48
2023-03-26T14:38:38.170Z,99368.32
2023-03-26T14:41:18.058Z,99367.77
2023-03-26T14:44:58.840Z,99367.60
2023-03-26T14:47:30.576Z,99367.17
2023-03-26T14:50:36.104Z,99366.90
2023-03-26T14:53:19.242Z,99373.91
2023-03-26T14:56:16.046Z,99368.77
2023-03-26T14:59:21.762Z,99369.05
2023-03-26T15:02:26.042Z,99368.98
2023-03-26T15:05:27.886Z,99362.93
2023-03-26T15:08:42.528Z,99365.33
2023-03-26T15:11:26.964Z,99367.05
2023-03-26T15:14:39.261Z,99365.96
2023-03-26T15:17:44.640Z,99360.30
2023-03-26T15:20:56.096Z,99360.28
2023-03-26T15:23:57.906Z,99360.29
2023-03-26T15:26:53.689Z,99359.23
2023-03-26T15:33:34.298Z,99346.27
2023-03-26T15:36:44.091Z,99347.73
2023-03-26T15:39:39.053Z,99342.16
2023-03-26T15:42:18.029Z,99339.73
2023-03-26T15:44:58.956Z,99335.75
2023-03-26T15:48:03.384Z,99334.10
2023-03-26T15:50:44.230Z,99329.05
2023-03-26T15:53:23.107Z,99332.98
2023-03-26T15:56:17.239Z,99336.67
2023-03-26T15:58:53.722Z,99336.27
2023-03-26T16:01:38.421Z,99339.42
2023-03-26T16:04:24.079Z,99338.98
2023-03-26T16:07:00.603Z,99337.59
2023-03-26T16:09:53.238Z,99335.27
2023-03-26T16:12:33.322Z,99332.41
2023-03-26T16:15:24.259Z,99330.43
2023-03-26T16:18:28.954Z,99330.42
2023-03-26T16:21:32.095Z,99325.88
2023-03-26T16:24:23.853Z,99326.08
2023-03-26T16:27:15.232Z,99332.33
2023-03-26T16:30:22.636Z,99329.63
2023-03-26T16:32:57.101Z,99329.71
2023-03-26T16:36:12.464Z,99328.88
2023-03-26T16:38:53.686Z,99329.83
2023-03-26T16:41:27.427Z,99331.64
2023-03-26T16:44:13.152Z,99329.93
2023-03-26T16:46:57.194Z,99327.60
2023-03-26T16:50:09.100Z,99329.35
2023-03-26T16:52:55.981Z,99332.35
2023-03-26T16:55:39.472Z,99332.66
2023-03-26T16:58:27.274Z,99330.73
2023-03-26T17:01:11.864Z,99328.88
2023-03-26T17:03:51.649Z,99327.50
2023-03-26T17:06:36.535Z,99327.73
2023-03-26T17:09:21.105Z,99329.08
2023-03-26T17:12:00.763Z,99328.39
2023-03-26T17:14:42.776Z,99325.30
2023-03-26T17:17:28.173Z,99330.29
2023-03-26T17:20:06.008Z,99330.08
2023-03-26T17:22:42.916Z,99333.66
2023-03-26T17:25:25.029Z,99332.86
2023-03-26T17:28:12.970Z,99333.60
2023-03-26T17:31:02.292Z,99333.59
2023-03-26T17:33:36.185Z,99334.42
2023-03-26T17:36:40.109Z,99331.23
2023-03-26T17:40:09.298Z,99330.25
2023-03-26T17:43:00.119Z,99334.62
2023-03-26T17:45:34.042Z,99332.13
2023-03-26T17:48:14.195Z,99335.95
2023-03-26T17:50:50.776Z,99340.46
2023-03-26T17:53:28.054Z,99341.22
2023-03-26T17:56:01.450Z,99343.12
2023-03-26T17:58:36.928Z,99343.52
2023-03-26T18:01:17.464Z,99342.08
2023-03-26T18:03:50.953Z,99344.85
2023-03-26T18:06:39.025Z,99345.39
2023-03-26T18:09:25.031Z,99343.85
2023-03-26T18:12:15.676Z,99344.20
2023-03-26T18:15:09.915Z,99345.23
2023-03-26T18:17:46.769Z,99348.55
2023-03-26T18:20:36.246Z,99350.61
2023-03-26T18:23:20.051Z,99354.58
2023-03-26T18:25:57.281Z,99351.83
2023-03-26T18:28:41.038Z,99345.64
2023-03-26T18:31:21.305Z,99344.04
2023-03-26T18:33:57.303Z,99340.56
2023-03-26T18:36:30.839Z,99342.11
2023-03-26T18:39:03.318Z,99339.66
2023-03-26T18:41:54.231Z,99337.20
2023-03-26T18:44:25.124Z,99339.52
2023-03-26T18:46:57.130Z,99338.80
2023-03-26T18:49:28.890Z,99338.71
2023-03-26T18:51:59.667Z,99336.83
2023-03-26T18:54:34.782Z,99340.06
2023-03-26T18:57:19.762Z,99339.43
2023-03-26T18:59:52.090Z,99338.66
2023-03-26T19:02:25.243Z,99338.40
2023-03-26T19:04:56.264Z,99332.61
2023-03-26T19:07:27.704Z,99330.63
2023-03-26T19:10:00.159Z,99332.64
2023-03-26T19:12:35.174Z,99336.79
2023-03-26T19:15:10.184Z,99331.86
2023-03-26T19:17:43.357Z,99330.26
2023-03-26T19:20:19.262Z,99331.31
2023-03-26T19:22:50.902Z,99332.17
2023-03-26T19:25:25.297Z,99330.92
2023-03-26T19:27:56.313Z,99326.96
2023-03-26T19:30:31.637Z,99329.25
2023-03-26T19:33:13.581Z,99326.67
2023-03-26T19:35:46.466Z,99324.11
2023-03-26T19:38:26.934Z,99319.40
2023-03-26T19:40:58.489Z,99321.24
2023-03-26T19:43:30.023Z,99320.61
2023-03-26T19:46:04.187Z,99322.04
2023-03-26T19:48:45.826Z,99319.42
2023-03-26T19:51:22.745Z,99319.29
2023-03-26T19:53:57.552Z,99319.91
2023-03-26T19:56:29.108Z,99318.44
2023-03-26T19:58:59.899Z,99318.50
2023-03-26T20:01:31.744Z,99318.98
2023-03-26T20:04:05.106Z,99317.30
2023-03-26T20:06:43.395Z,99315.33
2023-03-26T20:09:37.473Z,99316.98
2023-03-26T20:12:06.481Z,99317.23
2023-03-26T20:14:57.696Z,99315.98
2023-03-26T20:17:31.241Z,99317.10
2023-03-26T20:20:04.698Z,99315.80
2023-03-26T20:22:35.350Z,99318.58
2023-03-26T20:27:53.193Z,99315.89
2023-03-26T20:30:36.878Z,99315.88
2023-03-26T20:33:14.491Z,99314.28
2023-03-26T20:35:45.354Z,99315.52
2023-03-26T20:38:17.043Z,99313.55
2023-03-26T20:40:49.522Z,99313.92
2023-03-26T20:43:20.383Z,99313.36
2023-03-26T20:45:51.433Z,99314.75
2023-03-26T20:48:24.023Z,99313.50
2023-03-26T20:51:15.977Z,99317.61
2023-03-26T20:54:12.802Z,99315.38
2023-03-26T20:56:43.769Z,99316.33
2023-03-26T20:59:16.054Z,99319.34
2023-03-26T21:01:47.273Z,99320.80
2023-03-26T21:04:21.808Z,99325.05
2023-03-26T21:06:57.661Z,99324.91
2023-03-26T21:09:35.658Z,99329.79
2023-03-26T21:12:15.183Z,99332.16
2023-03-26T21:14:49.614Z,99338.81
2023-03-26T21:17:24.046Z,99341.22
2023-03-26T21:19:55.782Z,99342.14
2023-03-26T21:23:00.372Z,99341.24
2023-03-26T21:25:34.805Z,99346.98
2023-03-26T21:28:35.806Z,99351.09
2023-03-26T21:31:16.898Z,99352.05
2023-03-26T21:33:49.558Z,99355.08
2023-03-26T21:36:25.298Z,99351.34
2023-03-26T21:39:16.832Z,99355.50
2023-03-26T21:42:04.807Z,99352.38
2023-03-26T21:44:39.265Z,99349.36
2023-03-26T21:47:14.293Z,99353.26
2023-03-26T21:50:18.337Z,99353.02
2023-03-26T21:52:51.974Z,99355.22
2023-03-26T21:55:24.550Z,99357.71
2023-03-26T21:58:18.261Z,99357.08
2023-03-26T22:01:05.303Z,99360.59
2023-03-26T22:03:46.877Z,99360.69
2023-03-26T22:06:25.076Z,99363.75
2023-03-26T22:09:06.727Z,99363.14
2023-03-26T22:11:37.461Z,99368.92
2023-03-26T22:14:08.201Z,99367.41
2023-03-26T22:16:38.950Z,99366.93
2023-03-26T22:19:10.141Z,99371.48
2023-03-26T22:21:40.966Z,99369.27
2023-03-26T22:24:11.715Z,99366.23
2023-03-26T22:26:42.366Z,99370.79
2023-03-26T22:29:14.537Z,99371.65
2023-03-26T22:31:45.341Z,99370.73
2023-03-26T22:34:16.021Z,99374.66
2023-03-26T22:36:46.806Z,99374.89
2023-03-26T22:39:17.452Z,99375.20
2023-03-26T22:41:48.100Z,99374.55
2023-03-26T22:44:20.576Z,99375.01
2023-03-26T22:46:51.765Z,99380.14
2023-03-26T22:49:20.956Z,99382.73
2023-03-26T22:51:51.748Z,99384.29
2023-03-26T22:54:22.385Z,99388.67
2023-03-26T22:56:53.174Z,99393.97
2023-03-26T22:59:23.888Z,99395.80
2023-03-26T23:01:54.798Z,99397.67
2023-03-26T23:04:31.548Z,99398.77
2023-03-26T23:07:03.563Z,99400.84
2023-03-26T23:09:34.322Z,99403.14
2023-03-26T23:12:05.726Z,99402.39
2023-03-26T23:14:36.431Z,99404.91
2023-03-26T23:17:07.462Z,99405.70
2023-03-26T23:19:36.603Z,99410.48
2023-03-26T23:22:05.750Z,99409.16
2023-03-26T23:24:34.919Z,99409.74
2023-03-26T23:27:04.205Z,99409.91
2023-03-26T23:29:33.541Z,99408.47
2023-03-26T23:32:02.642Z,99411.45
2023-03-26T23:34:31.715Z,99408.73
2023-03-26T23:37:00.850Z,99415.30
2023-03-26T23:39:29.939Z,99424.80
2023-03-26T23:41:59.001Z,99430.30
2023-03-26T23:44:28.078Z,99436.19
2023-03-26T23:46:57.277Z,99440.30
2023-03-26T23:49:26.404Z,99446.27
2023-03-26T23:51:55.609Z,99454.48
2023-03-26T23:54:24.660Z,99457.44
2023-03-26T23:56:53.811Z,99460.23
2023-03-26T23:59:23.189Z,99464.18
